createdAt,value
2019-02-06T00:02:18.792Z,69.95
2019-02-06T00:04:48.315Z,78.30
2019-02-06T00:07:17.791Z,76.70
2019-02-06T00:09:47.338Z,64.32
2019-02-06T00:12:18.194Z,59.20
2019-02-06T00:14:47.724Z,71.37
2019-02-06T00:17:17.287Z,69.85
2019-02-06T00:19:46.809Z,61.25
2019-02-06T00:22:17.697Z,60.48
2019-02-06T00:24:47.214Z,61.65
2019-02-06T00:27:16.699Z,67.05
2019-02-06T00:29:46.219Z,63.50
2019-02-06T00:32:17.255Z,68.97
2019-02-06T00:34:46.812Z,73.75
2019-02-06T00:37:16.269Z,67.20
2019-02-06T00:39:45.779Z,69.37
2019-02-06T00:42:15.562Z,63.15
2019-02-06T00:44:45.087Z,67.00
2019-02-06T00:47:14.642Z,62.08
2019-02-06T00:49:44.161Z,67.08
2019-02-06T00:52:13.642Z,58.45
2019-02-06T00:54:43.158Z,58.80
2019-02-06T00:57:13.234Z,74.80
2019-02-06T00:59:42.720Z,56.10
2019-02-06T01:02:13.847Z,64.45
2019-02-06T01:04:43.358Z,59.58
2019-02-06T01:07:14.148Z,63.33
2019-02-06T01:09:43.667Z,72.87
2019-02-06T01:12:13.756Z,70.57
2019-02-06T01:14:43.318Z,66.30
2019-02-06T01:17:14.108Z,60.43
2019-02-06T01:19:43.628Z,61.15
2019-02-06T01:22:13.192Z,55.83
2019-02-06T01:24:42.754Z,60.65
2019-02-06T01:27:12.743Z,62.78
2019-02-06T01:29:42.279Z,60.05
2019-02-06T01:32:13.213Z,70.97
2019-02-06T01:34:42.723Z,59.08
2019-02-06T01:37:13.506Z,53.10
2019-02-06T01:39:43.039Z,71.20
2019-02-06T01:42:12.829Z,65.25
2019-02-06T01:44:42.355Z,68.52
2019-02-06T01:47:11.950Z,77.25
2019-02-06T01:49:41.438Z,76.80
2019-02-06T01:52:12.258Z,72.00
2019-02-06T01:54:41.679Z,86.70
2019-02-06T01:57:11.502Z,73.65
2019-02-06T01:59:40.923Z,89.55
2019-02-06T02:02:10.516Z,79.75
2019-02-06T02:04:40.012Z,66.80
2019-02-06T02:07:10.843Z,72.82
2019-02-06T02:09:40.323Z,69.05
2019-02-06T02:12:12.032Z,74.80
2019-02-06T02:14:41.902Z,76.80
2019-02-06T02:17:11.491Z,70.60
2019-02-06T02:19:40.984Z,66.42
2019-02-06T02:22:12.204Z,65.00
2019-02-06T02:24:41.771Z,55.33
2019-02-06T02:27:12.767Z,65.70
2019-02-06T02:29:42.260Z,93.40
2019-02-06T02:32:11.855Z,75.15
2019-02-06T02:34:41.355Z,94.60
2019-02-06T02:37:10.891Z,105.92
2019-02-06T02:39:41.990Z,96.97
2019-02-06T02:42:12.835Z,66.75
2019-02-06T02:44:42.314Z,91.53
2019-02-06T02:47:11.772Z,95.32
2019-02-06T02:49:41.259Z,79.03
2019-02-06T02:52:11.980Z,112.12
2019-02-06T02:54:42.072Z,146.68
2019-02-06T02:57:11.584Z,76.45
2019-02-06T02:59:41.067Z,123.58
2019-02-06T03:02:27.222Z,101.55
2019-02-06T03:04:57.394Z,82.85
2019-02-06T03:07:28.215Z,121.55
2019-02-06T03:09:57.687Z,97.10
2019-02-06T03:12:28.404Z,84.52
2019-02-06T03:14:57.892Z,97.57
2019-02-06T03:17:27.424Z,115.20
2019-02-06T03:19:57.142Z,112.45
2019-02-06T03:22:27.967Z,105.83
2019-02-06T03:24:57.460Z,88.92
2019-02-06T03:27:28.582Z,103.97
2019-02-06T03:29:58.012Z,101.18
2019-02-06T03:32:28.831Z,97.53
2019-02-06T03:34:58.750Z,94.70
2019-02-06T03:37:29.669Z,85.57
2019-02-06T03:39:59.154Z,74.17
2019-02-06T03:42:30.100Z,100.82
2019-02-06T03:44:59.634Z,96.00
2019-02-06T03:47:30.629Z,108.97
2019-02-06T03:50:00.093Z,95.40
2019-02-06T03:52:31.244Z,83.72
2019-02-06T03:55:00.688Z,92.22
2019-02-06T03:57:31.783Z,69.20
2019-02-06T04:00:01.233Z,68.70
2019-02-06T04:02:32.180Z,63.75
2019-02-06T04:05:01.638Z,58.73
2019-02-06T04:07:32.419Z,59.53
2019-02-06T04:10:01.940Z,55.35
2019-02-06T04:12:32.898Z,57.43
2019-02-06T04:15:02.360Z,49.80
2019-02-06T04:17:33.555Z,58.90
2019-02-06T04:20:03.083Z,65.72
2019-02-06T04:22:33.963Z,62.43
2019-02-06T04:25:03.657Z,66.87
2019-02-06T04:27:34.918Z,65.47
2019-02-06T04:30:06.152Z,59.70
2019-02-06T04:32:37.114Z,60.78
2019-02-06T04:35:09.051Z,53.98
2019-02-06T04:37:39.867Z,58.70
2019-02-06T04:40:12.428Z,72.25
2019-02-06T04:42:43.116Z,85.25
2019-02-06T04:45:15.169Z,84.75
2019-02-06T04:47:45.956Z,79.15
2019-02-06T04:50:16.813Z,80.55
2019-02-06T04:52:47.822Z,62.13
2019-02-06T04:55:18.295Z,60.90
2019-02-06T04:57:49.306Z,75.95
2019-02-06T05:00:24.279Z,61.37
2019-02-06T05:02:53.747Z,65.05
2019-02-06T05:05:23.318Z,85.47
2019-02-06T05:07:52.741Z,91.17
2019-02-06T05:10:22.299Z,67.75
2019-02-06T05:12:51.703Z,65.60
2019-02-06T05:15:22.432Z,66.45
2019-02-06T05:17:51.916Z,71.12
2019-02-06T05:20:37.911Z,67.27
2019-02-06T05:23:08.231Z,72.92
2019-02-06T05:25:37.684Z,80.55
2019-02-06T05:28:07.103Z,56.77
2019-02-06T05:30:37.815Z,80.75
2019-02-06T05:33:07.243Z,74.00
2019-02-06T05:35:38.055Z,72.87
2019-02-06T05:38:08.038Z,76.95
2019-02-06T05:40:37.487Z,60.55
2019-02-06T05:43:06.931Z,71.53
2019-02-06T05:45:36.350Z,76.42
2019-02-06T05:48:05.880Z,72.00
2019-02-06T05:50:36.659Z,65.40
2019-02-06T05:53:06.611Z,62.75
2019-02-06T05:55:37.499Z,63.58
2019-02-06T05:58:06.928Z,71.47
2019-02-06T06:00:38.923Z,70.85
2019-02-06T06:03:08.380Z,72.72
2019-02-06T06:05:37.799Z,68.07
2019-02-06T06:08:07.726Z,63.80
2019-02-06T06:10:38.643Z,58.92
2019-02-06T06:13:08.088Z,75.50
2019-02-06T06:15:37.512Z,68.90
2019-02-06T06:18:07.027Z,58.13
2019-02-06T06:20:38.015Z,50.88
2019-02-06T06:23:07.970Z,58.17
2019-02-06T06:25:37.473Z,56.70
2019-02-06T06:28:06.920Z,52.43
2019-02-06T06:30:37.707Z,53.83
2019-02-06T06:33:07.160Z,51.65
2019-02-06T06:35:37.860Z,61.08
2019-02-06T06:38:07.816Z,50.88
2019-02-06T06:40:38.920Z,44.33
2019-02-06T06:43:08.445Z,58.95
2019-02-06T06:45:37.864Z,63.02
2019-02-06T06:48:07.332Z,55.90
2019-02-06T06:50:38.011Z,51.45
2019-02-06T06:53:07.948Z,56.42
2019-02-06T06:55:37.355Z,50.48
2019-02-06T06:58:06.769Z,48.85
2019-02-06T07:00:37.762Z,51.15
2019-02-06T07:03:07.255Z,54.42
2019-02-06T07:05:36.788Z,47.55
2019-02-06T07:08:09.646Z,55.78
2019-02-06T07:10:37.778Z,57.95
2019-02-06T07:13:07.217Z,50.95
2019-02-06T07:15:38.026Z,47.40
2019-02-06T07:18:07.447Z,51.55
2019-02-06T07:20:36.967Z,46.90
2019-02-06T07:23:06.376Z,47.93
2019-02-06T07:25:35.819Z,47.58
2019-02-06T07:28:07.208Z,45.17
2019-02-06T07:30:37.647Z,49.45
2019-02-06T07:33:07.060Z,40.83
2019-02-06T07:35:37.996Z,43.25
2019-02-06T07:38:07.479Z,47.53
2019-02-06T07:40:36.945Z,46.75
2019-02-06T07:43:06.434Z,39.92
2019-02-06T07:45:37.154Z,46.28
2019-02-06T07:48:06.851Z,48.73
2019-02-06T07:50:36.362Z,51.92
2019-02-06T07:53:05.774Z,43.40
2019-02-06T07:55:36.707Z,49.27
2019-02-06T07:58:06.194Z,53.02
2019-02-06T08:00:35.706Z,43.10
2019-02-06T08:03:05.660Z,49.83
2019-02-06T08:05:35.591Z,52.05
2019-02-06T08:08:06.539Z,41.65
2019-02-06T08:10:37.605Z,50.85
2019-02-06T08:13:07.050Z,45.88
2019-02-06T08:15:37.780Z,52.48
2019-02-06T08:18:07.200Z,51.50
2019-02-06T08:20:38.619Z,51.02
2019-02-06T08:23:08.051Z,51.05
2019-02-06T08:25:37.602Z,53.78
2019-02-06T08:28:07.020Z,56.75
2019-02-06T08:30:39.138Z,60.63
2019-02-06T08:33:08.613Z,48.00
2019-02-06T08:35:39.538Z,51.18
2019-02-06T08:38:09.035Z,52.88
2019-02-06T08:40:38.558Z,60.25
2019-02-06T08:43:08.119Z,53.98
2019-02-06T08:45:38.823Z,61.55
2019-02-06T08:48:08.672Z,57.67
2019-02-06T08:50:39.349Z,53.63
2019-02-06T08:53:08.918Z,47.53
2019-02-06T08:55:39.703Z,44.23
2019-02-06T08:58:09.154Z,43.50
2019-02-06T09:00:40.611Z,42.43
2019-02-06T09:03:10.870Z,46.60
2019-02-06T09:05:40.356Z,40.17
2019-02-06T09:08:10.296Z,39.75
2019-02-06T09:10:41.160Z,45.10
2019-02-06T09:13:10.606Z,42.38
2019-02-06T09:15:41.566Z,41.13
2019-02-06T09:18:11.559Z,43.68
2019-02-06T09:20:41.043Z,46.40
2019-02-06T09:23:10.560Z,47.67
2019-02-06T09:25:40.087Z,45.70
2019-02-06T09:28:09.695Z,46.33
2019-02-06T09:30:39.132Z,49.77
2019-02-06T09:33:08.843Z,49.85
2019-02-06T09:35:38.444Z,40.28
2019-02-06T09:38:07.879Z,41.53
2019-02-06T09:40:37.298Z,42.62
2019-02-06T09:43:06.744Z,44.20
2019-02-06T09:45:36.171Z,42.90
2019-02-06T09:48:05.918Z,35.28
2019-02-06T09:50:37.349Z,38.40
2019-02-06T09:53:06.837Z,37.90
2019-02-06T09:55:37.479Z,38.48
2019-02-06T09:58:07.002Z,38.45
2019-02-06T10:00:38.503Z,41.80
2019-02-06T10:03:08.129Z,38.75
2019-02-06T10:05:38.910Z,37.65
2019-02-06T10:08:08.368Z,40.50
2019-02-06T10:10:37.852Z,35.60
2019-02-06T10:13:07.325Z,35.78
2019-02-06T10:15:38.465Z,34.92
2019-02-06T10:18:07.945Z,34.40
2019-02-06T10:20:41.370Z,40.35
2019-02-06T10:23:10.891Z,30.97
2019-02-06T10:25:41.851Z,29.42
2019-02-06T10:28:12.122Z,38.78
2019-02-06T10:30:44.476Z,33.55
2019-02-06T10:33:14.009Z,26.82
2019-02-06T10:35:44.785Z,31.23
2019-02-06T10:38:14.298Z,28.02
2019-02-06T10:40:45.215Z,31.85
2019-02-06T10:43:14.690Z,30.90
2019-02-06T10:45:45.399Z,30.68
2019-02-06T10:48:14.812Z,28.53
2019-02-06T10:50:47.666Z,29.30
2019-02-06T10:53:17.087Z,23.27
2019-02-06T10:55:48.860Z,27.33
2019-02-06T10:58:20.438Z,25.00
2019-02-06T11:00:54.472Z,28.60
2019-02-06T11:03:23.964Z,26.25
2019-02-06T11:05:54.699Z,26.47
2019-02-06T11:08:24.180Z,25.60
2019-02-06T11:10:55.190Z,25.20
2019-02-06T11:13:24.753Z,23.03
2019-02-06T11:15:55.890Z,26.97
2019-02-06T11:18:25.379Z,26.07
2019-02-06T11:20:56.317Z,23.77
2019-02-06T11:23:25.803Z,25.10
2019-02-06T11:25:55.810Z,23.27
2019-02-06T11:28:25.229Z,24.60
2019-02-06T11:30:57.080Z,26.80
2019-02-06T11:33:25.846Z,28.03
2019-02-06T11:35:55.368Z,25.90
2019-02-06T11:38:27.805Z,26.07
2019-02-06T11:40:56.046Z,23.50
2019-02-06T11:43:25.534Z,21.73
2019-02-06T11:45:56.577Z,23.03
2019-02-06T11:48:25.975Z,24.60
2019-02-06T11:50:55.490Z,21.83
2019-02-06T11:53:26.518Z,21.90
2019-02-06T11:55:56.086Z,22.57
2019-02-06T11:58:25.479Z,22.40
2019-02-06T12:01:13.066Z,22.87
2019-02-06T12:03:42.542Z,26.23
2019-02-06T12:06:12.370Z,36.17
2019-02-06T12:08:41.843Z,27.13
2019-02-06T12:11:13.430Z,23.17
2019-02-06T12:13:42.921Z,22.50
2019-02-06T12:16:13.764Z,26.20
2019-02-06T12:18:43.220Z,23.23
2019-02-06T12:21:14.264Z,22.67
2019-02-06T12:23:43.754Z,21.70
2019-02-06T12:26:14.583Z,20.53
2019-02-06T12:28:44.074Z,21.90
2019-02-06T12:31:13.595Z,20.90
2019-02-06T12:33:43.075Z,17.87
2019-02-06T12:36:15.844Z,23.97
2019-02-06T12:38:53.139Z,20.80
2019-02-06T12:41:17.763Z,26.57
2019-02-06T12:43:47.247Z,21.33
2019-02-06T12:46:18.270Z,22.10
2019-02-06T12:48:47.754Z,23.43
2019-02-06T12:51:17.172Z,22.13
2019-02-06T12:53:46.678Z,25.10
2019-02-06T12:56:16.103Z,23.77
2019-02-06T12:58:45.629Z,20.23
2019-02-06T13:01:16.802Z,22.10
2019-02-06T13:03:46.414Z,20.53
2019-02-06T13:06:17.303Z,19.97
2019-02-06T13:08:47.714Z,24.23
2019-02-06T13:11:17.200Z,23.13
2019-02-06T13:13:46.707Z,21.50
2019-02-06T13:16:17.483Z,20.80
2019-02-06T13:18:46.999Z,23.47
2019-02-06T13:21:16.528Z,21.77
2019-02-06T13:23:46.039Z,22.45
2019-02-06T13:26:15.550Z,25.77
2019-02-06T13:28:45.050Z,20.48
2019-02-06T13:31:15.898Z,22.15
2019-02-06T13:33:45.412Z,25.55
2019-02-06T13:36:15.291Z,24.75
2019-02-06T13:38:44.803Z,20.08
2019-02-06T13:41:15.491Z,26.00
2019-02-06T13:43:44.939Z,27.07
2019-02-06T13:46:14.424Z,30.40
2019-02-06T13:48:43.949Z,21.82
2019-02-06T13:51:19.055Z,20.72
2019-02-06T13:53:46.465Z,20.70
2019-02-06T13:56:17.247Z,23.05
2019-02-06T13:58:46.766Z,19.20
2019-02-06T14:01:25.377Z,23.52
2019-02-06T14:03:48.618Z,20.15
2019-02-06T14:06:19.466Z,20.70
2019-02-06T14:08:48.979Z,28.07
2019-02-06T14:11:18.483Z,20.95
2019-02-06T14:13:48.017Z,22.85
2019-02-06T14:16:17.492Z,22.13
2019-02-06T14:18:47.303Z,24.37
2019-02-06T14:21:16.856Z,22.85
2019-02-06T14:23:52.162Z,23.25
2019-02-06T14:26:37.063Z,23.98
2019-02-06T14:29:26.310Z,29.70
2019-02-06T14:32:07.989Z,22.60
2019-02-06T14:34:58.727Z,25.20
2019-02-06T14:37:57.363Z,23.02
2019-02-06T14:40:30.135Z,24.27
2019-02-06T14:43:23.866Z,23.95
2019-02-06T14:46:21.670Z,22.50
2019-02-06T14:48:57.284Z,23.22
2019-02-06T14:51:44.378Z,25.23
2019-02-06T14:54:39.715Z,20.02
2019-02-06T14:57:19.381Z,23.40
2019-02-06T15:00:14.816Z,25.02
2019-02-06T15:03:05.651Z,25.85
2019-02-06T15:06:12.022Z,24.27
2019-02-06T15:08:59.187Z,26.93
2019-02-06T15:11:56.275Z,25.45
2019-02-06T15:14:31.950Z,24.20
2019-02-06T15:17:30.255Z,24.85
2019-02-06T15:20:03.098Z,28.87
2019-02-06T15:22:56.894Z,25.82
2019-02-06T15:25:35.622Z,31.55
2019-02-06T15:28:14.127Z,29.10
2019-02-06T15:31:00.364Z,30.75
2019-02-06T15:33:42.094Z,28.83
2019-02-06T15:36:33.925Z,35.30
2019-02-06T15:39:15.740Z,32.08
2019-02-06T15:42:07.846Z,31.37
2019-02-06T15:44:52.590Z,31.45
2019-02-06T15:47:31.092Z,32.28
2019-02-06T15:50:12.612Z,32.65
2019-02-06T15:53:04.947Z,28.00
2019-02-06T15:55:46.589Z,30.88
2019-02-06T15:58:30.980Z,31.95
2019-02-06T16:01:15.525Z,32.65
2019-02-06T16:04:28.389Z,34.98
2019-02-06T16:07:12.927Z,32.30
2019-02-06T16:10:18.835Z,28.30
2019-02-06T16:13:21.685Z,29.18
2019-02-06T16:16:21.516Z,38.42
2019-02-06T16:19:03.150Z,31.37
2019-02-06T16:21:52.811Z,34.03
2019-02-06T16:24:22.816Z,31.10
2019-02-06T16:27:05.639Z,31.45
2019-02-06T16:29:38.510Z,37.25
2019-02-06T16:32:17.096Z,34.13
2019-02-06T16:34:55.669Z,37.13
2019-02-06T16:37:46.218Z,41.33
2019-02-06T16:40:47.479Z,31.73
2019-02-06T16:43:28.696Z,35.30
2019-02-06T16:46:13.202Z,40.25
2019-02-06T16:49:07.151Z,32.23
2019-02-06T16:51:44.214Z,38.13
2019-02-06T16:54:35.046Z,37.90
2019-02-06T16:57:15.319Z,37.63
2019-02-06T17:00:02.986Z,35.33
2019-02-06T17:02:42.961Z,36.20
2019-02-06T17:05:33.565Z,40.50
2019-02-06T17:08:22.727Z,40.40
2019-02-06T17:11:02.855Z,36.33
2019-02-06T17:13:44.746Z,42.67
2019-02-06T17:16:38.622Z,42.67
2019-02-06T17:19:17.380Z,40.05
2019-02-06T17:22:10.797Z,37.90
2019-02-06T17:24:58.585Z,42.05
2019-02-06T17:27:49.388Z,37.35
2019-02-06T17:30:34.640Z,48.95
2019-02-06T17:33:40.795Z,40.78
2019-02-06T17:36:47.833Z,44.67
2019-02-06T17:39:24.480Z,47.13
2019-02-06T17:42:16.054Z,48.85
2019-02-06T17:45:11.454Z,45.90
2019-02-06T17:47:48.339Z,44.67
2019-02-06T17:50:36.092Z,45.80
2019-02-06T17:53:17.579Z,46.15
2019-02-06T17:55:47.123Z,44.73
2019-02-06T17:58:16.560Z,45.83
2019-02-06T18:01:00.350Z,46.80
2019-02-06T18:03:33.386Z,49.63
2019-02-06T18:06:02.917Z,52.78
2019-02-06T18:08:32.409Z,64.42
2019-02-06T18:11:01.929Z,44.25
2019-02-06T18:13:31.408Z,47.35
2019-02-06T18:16:00.948Z,58.70
2019-02-06T18:18:30.438Z,45.28
2019-02-06T18:21:01.267Z,51.20
2019-02-06T18:23:30.735Z,56.28
2019-02-06T18:26:00.272Z,60.75
2019-02-06T18:28:29.751Z,57.55
2019-02-06T18:31:00.711Z,53.05
2019-02-06T18:33:30.826Z,53.98
2019-02-06T18:36:00.274Z,60.65
2019-02-06T18:38:32.113Z,53.30
2019-02-06T18:41:02.246Z,60.25
2019-02-06T18:43:31.666Z,63.75
2019-02-06T18:46:01.259Z,53.58
2019-02-06T18:48:30.739Z,53.42
2019-02-06T18:51:01.963Z,57.17
2019-02-06T18:53:31.381Z,51.53
2019-02-06T18:56:02.211Z,69.17
2019-02-06T18:58:31.698Z,61.00
2019-02-06T19:01:02.623Z,59.35
2019-02-06T19:03:35.308Z,74.72
2019-02-06T19:06:04.834Z,63.58
2019-02-06T19:08:34.729Z,64.10
2019-02-06T19:11:04.235Z,69.27
2019-02-06T19:13:33.665Z,63.15
2019-02-06T19:16:04.583Z,61.68
2019-02-06T19:18:33.995Z,62.00
2019-02-06T19:21:03.455Z,71.55
2019-02-06T19:23:32.934Z,63.00
2019-02-06T19:26:03.876Z,56.90
2019-02-06T19:28:33.359Z,64.87
2019-02-06T19:31:02.776Z,51.50
2019-02-06T19:33:32.296Z,53.23
2019-02-06T19:36:01.820Z,66.37
2019-02-06T19:38:31.350Z,65.67
2019-02-06T19:41:02.432Z,53.95
2019-02-06T19:43:31.883Z,54.90
2019-02-06T19:46:01.304Z,64.70
2019-02-06T19:48:31.211Z,52.27
2019-02-06T19:51:02.103Z,77.53
2019-02-06T19:53:31.631Z,64.03
2019-02-06T19:56:02.595Z,72.55
2019-02-06T19:58:32.179Z,89.80
2019-02-06T20:01:01.752Z,75.90
2019-02-06T20:03:31.367Z,72.05
2019-02-06T20:06:02.247Z,69.47
2019-02-06T20:08:31.773Z,70.95
2019-02-06T20:11:01.252Z,71.45
2019-02-06T20:13:31.166Z,68.97
2019-02-06T20:16:02.027Z,66.10
2019-02-06T20:18:31.551Z,74.05
2019-02-06T20:21:01.062Z,66.42
2019-02-06T20:23:30.583Z,74.72
2019-02-06T20:26:00.067Z,66.10
2019-02-06T20:28:29.590Z,66.57
2019-02-06T20:30:59.443Z,81.80
2019-02-06T20:33:28.962Z,73.22
2019-02-06T20:35:59.756Z,76.75
2019-02-06T20:38:29.204Z,89.10
2019-02-06T20:40:58.708Z,79.55
2019-02-06T20:43:28.164Z,76.40
2019-02-06T20:45:58.949Z,87.50
2019-02-06T20:48:28.406Z,108.65
2019-02-06T20:50:57.832Z,97.35
2019-02-06T20:53:27.368Z,102.70
2019-02-06T20:55:56.778Z,76.33
2019-02-06T20:58:26.233Z,86.32
2019-02-06T21:00:55.650Z,87.67
2019-02-06T21:03:25.580Z,101.90
2019-02-06T21:05:55.076Z,85.00
2019-02-06T21:08:24.518Z,88.75
2019-02-06T21:10:54.012Z,92.27
2019-02-06T21:13:32.921Z,107.10
2019-02-06T21:15:54.508Z,102.72
2019-02-06T21:18:24.460Z,84.20
2019-02-06T21:20:55.251Z,75.90
2019-02-06T21:23:24.818Z,75.47
2019-02-06T21:25:55.573Z,82.35
2019-02-06T21:28:25.033Z,91.92
2019-02-06T21:30:54.512Z,75.80
2019-02-06T21:33:24.332Z,79.27
2019-02-06T21:35:53.854Z,72.40
2019-02-06T21:38:23.347Z,79.12
2019-02-06T21:40:52.991Z,67.05
2019-02-06T21:43:22.574Z,76.35
2019-02-06T21:45:52.078Z,70.60
2019-02-06T21:48:22.333Z,69.05
2019-02-06T21:50:53.404Z,60.17
2019-02-06T21:53:22.887Z,65.17
2019-02-06T21:55:52.467Z,61.58
2019-02-06T21:58:21.874Z,55.67
2019-02-06T22:00:52.690Z,83.22
2019-02-06T22:03:22.383Z,77.45
2019-02-06T22:05:53.111Z,80.28
2019-02-06T22:08:22.532Z,61.98
2019-02-06T22:10:53.243Z,76.60
2019-02-06T22:13:22.734Z,63.20
2019-02-06T22:15:53.854Z,80.53
2019-02-06T22:18:23.438Z,73.78
2019-02-06T22:20:54.298Z,68.45
2019-02-06T22:23:23.791Z,84.30
2019-02-06T22:25:53.322Z,78.92
2019-02-06T22:28:22.732Z,88.22
2019-02-06T22:30:52.290Z,81.50
2019-02-06T22:33:21.701Z,69.22
2019-02-06T22:35:52.422Z,80.57
2019-02-06T22:38:21.940Z,61.90
2019-02-06T22:40:52.683Z,65.67
2019-02-06T22:43:22.172Z,72.15
2019-02-06T22:45:51.691Z,72.80
2019-02-06T22:48:21.181Z,60.92
2019-02-06T22:50:52.095Z,61.98
2019-02-06T22:53:21.587Z,63.50
2019-02-06T22:55:51.053Z,81.95
2019-02-06T22:58:21.037Z,65.30
2019-02-06T23:01:03.998Z,76.02
2019-02-06T23:03:36.232Z,73.02
2019-02-06T23:06:07.228Z,77.65
2019-02-06T23:08:36.706Z,73.72
2019-02-06T23:11:07.553Z,70.03
2019-02-06T23:13:37.108Z,76.97
2019-02-06T23:16:06.625Z,86.78
2019-02-06T23:18:36.181Z,83.52
2019-02-06T23:21:07.116Z,70.35
2019-02-06T23:23:36.991Z,64.62
2019-02-06T23:26:07.922Z,60.33
2019-02-06T23:28:37.412Z,74.97
2019-02-06T23:31:06.903Z,79.72
2019-02-06T23:33:36.436Z,59.10
2019-02-06T23:36:07.357Z,66.17
2019-02-06T23:38:36.874Z,58.70
2019-02-06T23:41:07.788Z,70.87
2019-02-06T23:43:38.847Z,84.47
2019-02-06T23:46:09.802Z,85.80
2019-02-06T23:48:39.326Z,89.52
2019-02-06T23:51:09.108Z,81.55
2019-02-06T23:53:38.629Z,95.85
2019-02-06T23:56:08.121Z,100.12
2019-02-06T23:58:37.629Z,90.30
